Waite Park, Minnesota
Current Conditions -  °F | °C
As of 3:53 PM on Saturday 20 Dec 2014 (Local Time) from KSTC Reporting Station
Overcast Overcast  
Wind Chill: 23°   Ceiling: 1100
Heat Index: 32°   Visibility: 10mi
Dew Point: 26°   Wind: 12mph
Humidity: 79%   Direction: 160°SSE
Pressure: 30.08"   Gusts: NA
Location:  45.55°N, 94.23°W
Report Text: KSTC 202153Z 16010KT 10SM OVC011 00/M03 A3008 RMK AO2 SLP206 T00001033 $
Loading
Personal Weather Stations






























Interactive Weather Map New forecast layout! Learn more

10-Day Weather Forecast

Advertisements
Track Severe Weather on mobile